Time;durP1;ratioP1;P1;durP2;ratioP2;P2;SDS_P1;SDS_P2;PMS_P1;PMS_P2;Temp;Humidity;BMP_temperature;BMP_pressure;BME280_temperature;BME280_humidity;BME280_pressure;Samples;Min_cycle;Max_cycle;Signal;HPM_P1;HPM_P2
2022/11/27 00:04:11;;;;;;;10.75;6.43;;;;;;;15.88;69.98;102386.16;6307486;22;20000;-88
2022/11/27 00:06:38;;;;;;;11.00;6.88;;;;;;;15.88;69.86;102380.97;6289013;22;20037;-84
2022/11/27 00:09:07;;;;;;;12.25;6.63;;;;;;;15.87;69.84;102370.53;6331882;22;20011;-87
2022/11/27 00:11:33;;;;;;;10.90;6.60;;;;;;;15.87;70.03;102367.94;6322861;22;19992;-88
2022/11/27 00:14:00;;;;;;;10.30;6.03;;;;;;;15.87;69.91;102375.72;6319192;22;20007;-83
2022/11/27 00:16:27;;;;;;;10.80;6.53;;;;;;;15.86;69.83;102361.88;6335543;22;20003;-86
2022/11/27 00:18:53;;;;;;;9.65;6.20;;;;;;;15.87;69.61;102363.63;6330453;22;20003;-86
2022/11/27 00:23:56;;;;;;;9.70;5.97;;;;;;;15.87;69.71;102357.56;6264232;22;20011;-84
2022/11/27 00:26:22;;;;;;;10.40;5.88;;;;;;;15.87;69.83;102355.81;6308681;22;19997;-84
2022/11/27 00:31:28;;;;;;;11.07;5.95;;;;;;;15.87;69.60;102355.81;6328415;22;19995;-86
2022/11/27 00:34:01;;;;;;;8.68;5.75;;;;;;;15.86;69.91;102355.81;6339584;22;19995;-86
2022/11/27 00:36:28;;;;;;;10.07;5.65;;;;;;;15.87;69.57;102358.41;6366545;22;20046;-86
2022/11/27 00:38:54;;;;;;;8.50;5.32;;;;;;;15.86;69.56;102361.00;6339050;22;20003;-86
2022/11/27 00:41:23;;;;;;;9.25;5.35;;;;;;;15.86;69.57;102364.47;6339342;22;20007;-85
2022/11/27 00:43:49;;;;;;;9.45;5.47;;;;;;;15.88;69.72;102378.38;6339873;22;20009;-84
2022/11/27 00:46:19;;;;;;;8.23;5.10;;;;;;;15.86;69.62;102372.25;6339304;22;20054;-86
2022/11/27 00:48:45;;;;;;;8.60;5.55;;;;;;;15.86;69.52;102366.19;6339875;22;20073;-85
2022/11/27 00:51:14;;;;;;;10.35;5.28;;;;;;;15.87;69.44;102360.16;6339705;22;20002;-86
2022/11/27 00:53:41;;;;;;;6.63;4.97;;;;;;;15.83;69.55;102357.50;6339739;22;19999;-87
2022/11/27 00:56:08;;;;;;;7.45;4.38;;;;;;;15.84;69.43;102347.97;6339344;22;20002;-85
2022/11/27 00:58:34;;;;;;;7.35;5.00;;;;;;;15.84;69.55;102343.66;6340680;22;19999;-86
2022/11/27 01:01:01;;;;;;;7.15;4.18;;;;;;;15.86;69.13;102345.44;6341158;22;20005;-86
2022/11/27 01:03:28;;;;;;;6.97;4.57;;;;;;;15.83;69.59;102331.53;6341635;22;20010;-87
2022/11/27 01:05:53;;;;;;;6.75;4.72;;;;;;;15.86;69.60;102332.44;6341554;22;19999;-86
2022/11/27 01:08:20;;;;;;;6.28;4.30;;;;;;;15.83;69.55;102335.88;6341338;22;20023;-87
2022/11/27 01:10:57;;;;;;;7.90;4.60;;;;;;;15.82;69.50;102334.97;6341597;22;20006;-87
2022/11/27 01:13:26;;;;;;;9.20;4.70;;;;;;;15.82;69.48;102329.78;6341968;22;19999;-87
2022/11/27 01:16:06;;;;;;;6.22;4.07;;;;;;;15.83;69.55;102334.13;6341460;22;20050;-86
2022/11/27 01:18:34;;;;;;;6.60;4.22;;;;;;;15.84;69.14;102335.00;6341799;22;20040;-85
2022/11/27 01:21:00;;;;;;;7.95;4.43;;;;;;;15.83;69.14;102328.06;6341798;22;19987;-87
2022/11/27 01:23:25;;;;;;;7.85;3.97;;;;;;;15.83;69.38;102315.97;6341980;22;19994;-86
2022/11/27 01:25:54;;;;;;;5.18;3.92;;;;;;;15.83;69.05;102315.09;6368367;22;19987;-86
2022/11/27 01:28:22;;;;;;;7.95;4.38;;;;;;;15.83;69.31;102309.91;6341871;22;20003;-87
2022/11/27 01:30:49;;;;;;;5.82;4.00;;;;;;;15.83;69.35;102295.19;6341359;22;19987;-87
2022/11/27 01:33:15;;;;;;;6.97;4.00;;;;;;;15.82;69.33;102280.44;6341716;22;20014;-86
2022/11/27 01:35:41;;;;;;;5.90;4.00;;;;;;;15.83;69.04;102282.22;6341468;22;20040;-86
2022/11/27 01:38:07;;;;;;;6.50;3.63;;;;;;;15.84;68.93;102286.56;6341782;22;20014;-86
2022/11/27 01:40:32;;;;;;;4.97;3.53;;;;;;;15.84;69.26;102285.69;6341715;22;19995;-87
2022/11/27 01:42:58;;;;;;;6.25;3.70;;;;;;;15.83;69.15;102281.34;6341371;22;19997;-86
2022/11/27 01:45:24;;;;;;;5.25;3.40;;;;;;;15.82;68.98;102280.44;6341631;22;20021;-86
2022/11/27 01:48:00;;;;;;;5.82;3.70;;;;;;;15.81;69.31;102278.72;6341662;22;19999;-87
2022/11/27 01:50:34;;;;;;;7.68;3.92;;;;;;;15.82;69.11;102271.78;6341253;22;20022;-88
2022/11/27 01:53:09;;;;;;;5.45;3.33;;;;;;;15.82;69.30;102257.09;6341803;22;19994;-87
2022/11/27 01:55:41;;;;;;;5.35;3.45;;;;;;;15.81;68.78;102250.16;6341008;22;20022;-88
2022/11/27 01:58:11;;;;;;;7.00;3.58;;;;;;;15.83;69.12;102252.78;6341489;22;20026;-87
2022/11/27 02:00:42;;;;;;;5.75;3.58;;;;;;;15.80;69.26;102245.78;6367782;22;20006;-88
2022/11/27 02:29:58;;;;;;;4.43;2.90;;;;;;;15.81;68.65;102259.69;6362937;22;20013;-86
2022/11/27 02:32:34;;;;;;;5.03;2.63;;;;;;;15.81;68.52;102259.69;6295453;22;20041;-86
2022/11/27 02:35:18;;;;;;;5.03;2.85;;;;;;;15.80;68.72;102253.59;6348661;22;20006;-87
2022/11/27 02:45:38;;;;;;;5.93;3.20;;;;;;;15.80;68.50;102237.13;6289764;22;20011;-83
2022/11/27 02:50:42;;;;;;;6.80;3.05;;;;;;;15.79;68.49;102231.09;6317154;22;20051;-85
2022/11/27 02:55:45;;;;;;;4.22;2.55;;;;;;;15.78;68.59;102229.31;6309926;22;20832;-86
2022/11/27 02:58:18;;;;;;;4.47;2.70;;;;;;;15.79;68.85;102225.88;6341263;22;20001;-86
2022/11/27 03:42:26;;;;;;;5.07;2.50;;;;;;;15.78;68.20;102197.28;6298831;22;20018;-86
2022/11/27 03:45:23;;;;;;;4.47;2.70;;;;;;;15.78;68.10;102190.38;6340987;22;20022;-87
2022/11/27 03:47:56;;;;;;;3.30;2.22;;;;;;;15.78;68.14;102195.56;6340460;22;20018;-86
2022/11/27 03:50:34;;;;;;;3.72;2.10;;;;;;;15.78;68.31;102192.09;6340370;22;20011;-85
2022/11/27 04:11:04;;;;;;;3.37;2.10;;;;;;;15.77;68.09;102186.06;6274092;23;20028;-87
2022/11/27 04:13:30;;;;;;;4.15;2.40;;;;;;;15.76;68.09;102186.88;6248187;23;20014;-87
2022/11/27 04:15:59;;;;;;;3.90;2.10;;;;;;;15.76;68.09;102181.69;6246864;22;21107;-84
2022/11/27 04:18:25;;;;;;;3.83;2.40;;;;;;;15.75;68.19;102179.94;6308761;22;20006;-86
2022/11/27 04:20:51;;;;;;;3.83;2.22;;;;;;;15.75;68.26;102187.75;6309154;22;19992;-88
2022/11/27 04:23:17;;;;;;;3.80;2.20;;;;;;;15.75;68.09;102185.16;6309467;22;20067;-88
2022/11/27 04:25:43;;;;;;;4.07;2.10;;;;;;;15.78;68.00;102194.69;6309649;22;19999;-88
2022/11/27 04:28:08;;;;;;;4.40;2.20;;;;;;;15.75;67.92;102187.75;6283821;22;20050;-88
2022/11/27 04:30:34;;;;;;;3.35;2.10;;;;;;;15.76;68.10;102175.63;6308910;22;20046;-88
2022/11/27 04:40:45;;;;;;;2.90;1.98;;;;;;;15.76;67.87;102178.22;6326728;22;20046;-86
2022/11/27 04:43:12;;;;;;;4.10;1.90;;;;;;;15.76;67.81;102160.06;6339535;22;20019;-81
2022/11/27 05:01:09;;;;;;;3.42;1.80;;;;;;;15.73;67.82;102158.28;6354732;22;20015;-86
2022/11/27 05:03:35;;;;;;;2.67;1.77;;;;;;;15.75;67.89;102159.19;6339884;22;20007;-85
2022/11/27 05:06:01;;;;;;;3.15;1.60;;;;;;;15.74;67.80;102157.44;6339823;22;19983;-87
2022/11/27 05:08:28;;;;;;;3.20;1.75;;;;;;;15.73;67.69;102150.50;6340082;22;20062;-87
2022/11/27 05:11:15;;;;;;;4.75;1.90;;;;;;;15.73;67.76;102158.28;6339632;22;20002;-87
2022/11/27 05:13:41;;;;;;;3.00;1.80;;;;;;;15.74;67.66;102148.75;6340004;22;19987;-88
2022/11/27 05:16:07;;;;;;;3.08;1.83;;;;;;;15.74;67.52;102154.84;6339946;22;20006;-87
2022/11/27 05:18:33;;;;;;;2.85;1.80;;;;;;;15.73;67.65;102145.31;6339690;22;19986;-87
2022/11/27 05:21:02;;;;;;;2.45;1.60;;;;;;;15.73;67.99;102137.53;6339338;22;20031;-88
2022/11/27 05:23:28;;;;;;;3.47;1.83;;;;;;;15.73;67.64;102136.66;6339164;22;20052;-86
2022/11/27 05:25:54;;;;;;;3.38;1.90;;;;;;;15.74;67.67;102138.38;6339820;22;19987;-87
2022/11/27 05:28:21;;;;;;;2.78;1.73;;;;;;;15.72;67.37;102135.78;6340141;22;19989;-87
2022/11/27 05:30:47;;;;;;;3.00;1.85;;;;;;;15.73;67.53;102128.88;6339972;22;20446;-87
2022/11/27 05:33:13;;;;;;;2.05;1.65;;;;;;;15.74;67.76;102125.41;6314493;22;19991;-87
2022/11/27 05:35:39;;;;;;;2.47;1.60;;;;;;;15.72;67.83;102130.59;6308633;22;20071;-86
2022/11/27 05:38:06;;;;;;;2.88;1.70;;;;;;;15.73;67.51;102127.13;6334638;22;20011;-87
2022/11/27 05:40:31;;;;;;;2.70;1.80;;;;;;;15.73;67.55;102121.94;6308594;22;20018;-86
2022/11/27 05:42:57;;;;;;;2.88;1.63;;;;;;;15.72;67.43;102122.81;6308370;22;20039;-86
2022/11/27 05:45:23;;;;;;;3.22;1.70;;;;;;;15.73;67.44;102124.53;6294837;22;20022;-84
2022/11/27 05:47:48;;;;;;;3.40;1.65;;;;;;;15.73;67.31;102114.16;6279492;22;20055;-86
2022/11/27 05:50:14;;;;;;;2.97;1.60;;;;;;;15.74;67.40;102108.13;6279611;22;19991;-86
2022/11/27 05:52:40;;;;;;;2.50;1.55;;;;;;;15.72;67.58;102103.75;6279961;22;20030;-86
2022/11/27 06:00:16;;;;;;;2.65;1.52;;;;;;;15.72;67.31;102112.44;6326159;22;20055;-87
2022/11/27 06:10:27;;;;;;;2.60;1.50;;;;;;;15.72;67.15;102107.25;6286915;22;19999;-87
2022/11/27 06:12:54;;;;;;;3.35;1.67;;;;;;;15.74;67.44;102105.56;6310671;22;20013;-87
2022/11/27 06:15:20;;;;;;;2.42;1.42;;;;;;;15.74;67.06;102104.66;6311223;22;19987;-87
2022/11/27 06:17:48;;;;;;;4.65;1.55;;;;;;;15.73;67.21;102105.50;6280106;22;20035;-86
2022/11/27 06:20:14;;;;;;;2.90;1.52;;;;;;;15.71;67.32;102094.19;6249984;22;19992;-86
2022/11/27 06:34:24;;;;;;;2.80;1.58;;;;;;;15.72;66.99;102068.31;6280614;22;20034;-84
2022/11/27 06:39:24;;;;;;;2.30;1.40;;;;;;;15.73;66.97;102066.59;6301662;22;19944;-86
2022/11/27 06:54:59;;;;;;;2.45;1.48;;;;;;;15.82;66.67;102041.66;6206465;23;20032;-82
2022/11/27 07:05:18;;;;;;;2.53;1.40;;;;;;;15.94;66.14;102030.63;6211133;23;20012;-83
2022/11/27 07:08:22;;;;;;;1.88;1.08;;;;;;;15.97;65.97;102035.84;6205886;23;20052;-82
2022/11/27 07:10:48;;;;;;;2.50;1.25;;;;;;;16.00;65.92;102032.41;6201385;23;20005;-81
2022/11/27 07:13:14;;;;;;;2.75;1.48;;;;;;;16.04;65.59;102022.09;6150684;23;20009;-80
2022/11/27 07:15:39;;;;;;;3.97;1.40;;;;;;;16.08;65.58;102019.56;6172061;23;20088;-81
2022/11/27 07:18:05;;;;;;;1.45;1.00;;;;;;;16.09;65.65;102014.41;6152070;23;20465;-80
2022/11/27 07:20:31;;;;;;;2.88;1.38;;;;;;;16.14;65.71;102011.88;6181986;23;20013;-81
2022/11/27 07:23:21;;;;;;;1.90;1.13;;;;;;;16.14;65.82;102012.75;6183809;23;20005;-83
2022/11/27 07:26:27;;;;;;;3.13;1.25;;;;;;;16.17;65.90;102014.50;6186274;23;20013;-83
2022/11/27 07:43:15;;;;;;;2.90;1.20;;;;;;;16.17;66.27;102004.13;6210442;23;20051;-83
2022/11/27 07:48:24;;;;;;;2.50;1.10;;;;;;;16.15;66.36;102003.22;6328800;22;20057;-84
2022/11/27 07:50:50;;;;;;;2.67;1.25;;;;;;;16.11;66.38;102007.47;6309234;22;20042;-83
2022/11/27 07:53:18;;;;;;;1.92;1.10;;;;;;;16.10;66.61;102003.16;6294989;22;21207;-83
2022/11/27 07:55:48;;;;;;;2.60;1.30;;;;;;;16.09;66.57;101998.81;6294484;22;20027;-82
2022/11/27 07:58:15;;;;;;;1.48;0.90;;;;;;;16.09;66.37;101996.22;6293233;22;20003;-82
2022/11/27 08:00:42;;;;;;;1.75;0.90;;;;;;;16.14;66.52;102004.09;6273418;22;20003;-81
2022/11/27 08:04:03;;;;;;;2.20;1.13;;;;;;;16.18;66.18;101996.34;6277224;22;20023;-83
2022/11/27 08:14:02;;;;;;;1.98;1.00;;;;;;;16.28;66.13;101997.34;6065471;23;20079;-83
2022/11/27 08:20:18;;;;;;;5.65;1.20;;;;;;;16.25;66.25;102000.78;6146546;23;20040;-83
2022/11/27 08:22:44;;;;;;;1.83;0.98;;;;;;;16.21;66.52;102001.59;6131940;23;20014;-81
2022/11/27 08:25:10;;;;;;;1.98;0.90;;;;;;;16.13;67.21;102000.59;6108128;23;20465;-80
2022/11/27 08:27:35;;;;;;;2.50;1.33;;;;;;;16.01;67.89;101998.69;6135667;23;20063;-80
2022/11/27 08:30:00;;;;;;;5.90;1.27;;;;;;;15.90;69.22;102004.59;6136722;23;20067;-80
2022/11/27 08:32:26;;;;;;;3.97;1.50;;;;;;;15.88;68.49;102004.53;6148759;23;20012;-79
2022/11/27 08:34:51;;;;;;;11.55;3.38;;;;;;;15.98;66.68;102000.34;6214738;23;20017;-79
2022/11/27 08:37:17;;;;;;;12.93;5.18;;;;;;;16.04;66.13;102003.91;6231900;22;20007;-78
2022/11/27 08:39:42;;;;;;;27.38;9.25;;;;;;;16.08;65.75;101999.66;6282956;22;20451;-79
2022/11/27 08:42:07;;;;;;;25.55;10.05;;;;;;;16.11;65.75;101994.50;6311034;22;20102;-80
2022/11/27 08:44:35;;;;;;;28.98;9.75;;;;;;;16.10;65.84;101989.31;6262709;22;20007;-80
2022/11/27 08:47:01;;;;;;;33.75;9.23;;;;;;;16.08;65.91;101986.69;6283041;22;20065;-81
2022/11/27 08:49:26;;;;;;;21.52;7.88;;;;;;;16.05;65.89;101989.25;6251630;22;20083;-79
2022/11/27 08:51:51;;;;;;;23.23;7.30;;;;;;;16.04;66.08;101983.16;6256759;22;20086;-79
2022/11/27 08:54:17;;;;;;;20.80;6.95;;;;;;;16.02;66.06;101984.84;6279406;22;20020;-78
2022/11/27 08:56:44;;;;;;;22.23;6.95;;;;;;;16.02;65.71;101992.63;6228789;22;20058;-80
2022/11/27 08:59:12;;;;;;;19.35;6.30;;;;;;;16.01;65.88;101990.91;6254491;22;20031;-77
2022/11/27 09:01:37;;;;;;;22.48;6.50;;;;;;;16.00;66.07;101986.56;6251599;22;20008;-77
2022/11/27 09:04:03;;;;;;;12.90;5.43;;;;;;;15.98;66.70;101992.56;6281122;22;20019;-77
2022/11/27 09:06:32;;;;;;;14.52;5.63;;;;;;;15.93;67.26;101989.03;6250935;22;20007;-79
2022/11/27 09:09:03;;;;;;;12.05;5.32;;;;;;;15.89;67.88;101993.28;6278514;22;20007;-78
2022/11/27 09:11:30;;;;;;;18.25;6.05;;;;;;;15.86;67.57;101987.19;6250382;22;20363;-78
2022/11/27 09:13:58;;;;;;;15.18;4.70;;;;;;;15.82;67.65;101979.34;6225095;22;20004;-79
2022/11/27 09:16:24;;;;;;;16.58;4.63;;;;;;;15.80;68.31;101985.38;6253523;22;20063;-78
2022/11/27 09:18:58;;;;;;;12.10;4.30;;;;;;;15.81;67.18;101987.13;6239534;22;20011;-81
2022/11/27 09:22:01;;;;;;;10.23;4.00;;;;;;;15.90;67.19;101981.22;6269911;22;20014;-81
2022/11/27 09:24:29;;;;;;;16.13;4.55;;;;;;;15.97;66.86;101975.25;6274619;22;20003;-84
2022/11/27 09:31:00;;;;;;;14.38;4.32;;;;;;;16.02;67.38;101976.19;6303282;22;20065;-84
2022/11/27 09:37:44;;;;;;;10.40;3.40;;;;;;;16.04;67.30;101971.91;6304834;22;20014;-85
2022/11/27 09:40:35;;;;;;;7.43;3.38;;;;;;;16.01;67.67;101958.88;6209604;23;20012;-84
2022/11/27 09:46:49;;;;;;;7.07;3.28;;;;;;;15.96;68.28;101955.31;6180065;23;20024;-84
2022/11/27 09:50:09;;;;;;;10.45;3.30;;;;;;;15.97;68.39;101944.09;6155207;23;20013;-84
2022/11/27 09:52:48;;;;;;;7.70;3.33;;;;;;;15.95;68.13;101943.22;6067328;23;20013;-84
2022/11/27 09:55:28;;;;;;;6.05;2.90;;;;;;;15.94;68.33;101942.34;6090722;23;20018;-85
2022/11/27 10:01:38;;;;;;;6.90;2.92;;;;;;;15.91;68.30;101947.47;6034817;23;20023;-85
2022/11/27 10:04:33;;;;;;;7.88;3.20;;;;;;;15.93;68.30;101950.09;6010761;23;19998;-85
2022/11/27 10:11:27;;;;;;;;;;;;;;;;;;;;;
2022/11/27 10:14:08;;;;;;;7.00;3.10;;;;;;;15.92;68.63;101933.66;6004493;24;20015;-85
2022/11/27 10:27:17;;;;;;;5.63;2.67;;;;;;;15.91;68.42;101924.09;6122347;23;20077;-86
2022/11/27 10:30:47;;;;;;;8.30;3.03;;;;;;;15.91;68.05;101925.84;6115063;23;20001;-85
2022/11/27 10:40:42;;;;;;;5.63;2.72;;;;;;;15.92;67.77;101905.09;6121913;23;20116;-86
2022/11/27 10:49:51;;;;;;;5.67;2.60;;;;;;;15.92;67.94;101899.91;6120155;23;20025;-86
2022/11/27 10:53:01;;;;;;;6.85;2.60;;;;;;;15.91;67.83;101892.97;6120151;23;20010;-86
2022/11/27 10:56:17;;;;;;;6.63;2.70;;;;;;;15.91;67.99;101882.56;6120269;23;20027;-85
2022/11/27 11:05:59;;;;;;;5.30;2.50;;;;;;;15.93;67.97;101869.63;6173489;23;20041;-85
2022/11/27 11:15:40;;;;;;;4.70;2.28;;;;;;;15.96;67.80;101861.88;6182545;23;20028;-85
2022/11/27 12:35:21;;;;;;;4.18;2.17;;;;;;;15.92;67.02;101749.34;6323062;22;20034;-84
2022/11/27 14:41:29;;;;;;;2.45;1.50;;;;;;;15.90;65.56;101595.31;6266553;22;20026;-82
2022/11/27 15:04:51;;;;;;;6.68;2.35;;;;;;;15.94;65.92;101559.84;6288318;22;20070;-81
2022/11/27 15:07:44;;;;;;;8.55;2.50;;;;;;;16.06;65.99;101549.59;6271890;22;20022;-84
2022/11/27 15:10:50;;;;;;;4.80;2.38;;;;;;;16.03;66.10;101547.84;6276693;22;20046;-84
2022/11/27 15:13:37;;;;;;;6.47;2.47;;;;;;;16.00;66.49;101547.81;6273570;22;20000;-80
2022/11/27 15:16:35;;;;;;;8.10;2.60;;;;;;;15.99;66.73;101546.06;6289507;22;20010;-82
2022/11/27 15:19:30;;;;;;;5.82;2.65;;;;;;;15.95;66.78;101541.69;6245281;23;20000;-80
2022/11/27 15:21:59;;;;;;;7.40;2.70;;;;;;;15.95;66.76;101535.66;6260114;23;20011;-82
2022/11/27 15:24:57;;;;;;;5.93;2.38;;;;;;;15.96;66.87;101534.78;6261193;23;20015;-81
2022/11/27 15:27:46;;;;;;;10.63;2.67;;;;;;;15.94;66.82;101544.28;6243666;23;20000;-81
2022/11/27 15:30:50;;;;;;;11.77;2.92;;;;;;;15.95;67.05;101546.03;6256967;23;19999;-84
2022/11/27 15:33:49;;;;;;;9.82;2.60;;;;;;;15.95;67.20;101546.91;6268198;23;20004;-81
2022/11/27 15:36:26;;;;;;;5.60;2.20;;;;;;;15.95;67.25;101548.63;6262831;23;20034;-81
2022/11/27 15:39:04;;;;;;;5.38;2.47;;;;;;;15.96;67.54;101543.47;6259073;23;20004;-80
2022/11/27 15:41:35;;;;;;;6.97;2.67;;;;;;;15.94;67.60;101528.69;6234489;23;20063;-80
2022/11/27 15:44:02;;;;;;;6.78;2.65;;;;;;;15.91;67.60;101537.34;6249969;22;20034;-80
2022/11/27 15:46:33;;;;;;;8.00;2.60;;;;;;;15.87;67.87;101522.59;6264580;22;20007;-80
2022/11/27 15:48:59;;;;;;;7.63;2.60;;;;;;;15.85;67.77;101521.72;6264562;22;20026;-81
2022/11/27 15:54:59;;;;;;;5.53;2.50;;;;;;;15.84;67.71;101523.44;6298144;22;20105;-80
2022/11/27 15:57:25;;;;;;;6.50;2.53;;;;;;;15.86;67.89;101527.78;6202947;23;20412;-82
2022/11/27 16:00:22;;;;;;;11.65;2.50;;;;;;;15.86;67.89;101522.59;6189438;23;20008;-82
2022/11/27 16:02:47;;;;;;;5.60;2.50;;;;;;;15.84;67.83;101514.78;6170823;23;20017;-81
2022/11/27 16:05:45;;;;;;;5.03;2.60;;;;;;;15.86;68.07;101512.22;6148764;23;20048;-81
2022/11/27 16:08:58;;;;;;;7.72;2.83;;;;;;;15.87;68.19;101503.56;6138919;23;20045;-81
2022/11/27 16:11:38;;;;;;;4.70;2.50;;;;;;;15.86;68.47;101489.72;6173061;23;20005;-82
2022/11/27 16:18:12;;;;;;;9.20;3.45;;;;;;;15.88;68.56;101481.97;6177364;23;20115;-81
2022/11/27 16:20:45;;;;;;;15.52;5.45;;;;;;;15.87;68.50;101481.06;6112126;23;20010;-82
2022/11/27 16:34:19;;;;;;;13.20;4.25;;;;;;;15.98;67.80;101457.78;6264632;22;20024;-80
2022/11/27 16:36:45;;;;;;;11.27;3.95;;;;;;;16.05;67.72;101457.00;6261184;22;20326;-82
2022/11/27 16:39:21;;;;;;;13.80;4.05;;;;;;;16.11;67.89;101456.16;6264043;22;20012;-81
2022/11/27 16:41:47;;;;;;;16.25;4.68;;;;;;;16.10;68.73;101457.03;6293186;22;20317;-81
2022/11/27 16:44:15;;;;;;;14.13;4.55;;;;;;;16.16;68.35;101457.94;6259732;22;20750;-80
2022/11/27 16:46:42;;;;;;;11.18;3.90;;;;;;;16.16;68.39;101460.53;6284353;22;20008;-79
2022/11/27 16:49:08;;;;;;;12.55;3.80;;;;;;;16.15;68.19;101455.31;6284484;22;20019;-83
2022/11/27 16:51:38;;;;;;;8.45;3.83;;;;;;;16.15;68.21;101455.31;6260394;22;20446;-81
2022/11/27 16:57:29;;;;;;;9.77;3.85;;;;;;;16.16;68.18;101451.88;6291232;22;20067;-80
2022/11/27 16:59:55;;;;;;;8.70;3.50;;;;;;;16.16;68.29;101451.88;6259948;22;20011;-81
2022/11/27 17:02:21;;;;;;;10.55;3.70;;;;;;;16.15;68.25;101447.50;6283673;22;20008;-81
2022/11/27 17:04:46;;;;;;;6.95;3.60;;;;;;;16.15;68.34;101448.38;6283978;22;20008;-81
2022/11/27 17:07:12;;;;;;;8.52;3.45;;;;;;;16.16;68.32;101444.94;6260756;22;20030;-81
2022/11/27 17:09:41;;;;;;;9.70;3.17;;;;;;;16.15;68.93;101443.19;6231802;22;20007;-81
2022/11/27 17:12:06;;;;;;;8.73;3.55;;;;;;;16.14;68.59;101433.69;6279672;22;20018;-81
2022/11/27 17:14:32;;;;;;;13.90;3.55;;;;;;;16.14;68.75;101433.69;6280466;22;20008;-80
2022/11/27 17:16:57;;;;;;;9.07;3.55;;;;;;;16.14;68.65;101433.69;6255869;22;20023;-81
2022/11/27 17:19:23;;;;;;;7.82;3.33;;;;;;;16.14;68.63;101427.63;6275571;22;20011;-81
2022/11/27 17:21:48;;;;;;;9.45;3.20;;;;;;;16.12;68.57;101419.81;6229599;22;20065;-80
2022/11/27 17:24:15;;;;;;;6.00;2.97;;;;;;;16.12;68.65;101416.34;6228711;22;20004;-80
2022/11/27 17:26:44;;;;;;;8.13;2.90;;;;;;;16.12;68.82;101408.56;6254134;22;20008;-80
2022/11/27 17:29:11;;;;;;;7.53;3.33;;;;;;;16.13;68.69;101407.69;6230620;22;20007;-80
2022/11/27 17:31:37;;;;;;;6.88;3.20;;;;;;;16.13;68.71;101412.88;6282480;22;20046;-81
2022/11/27 17:34:13;;;;;;;6.80;3.10;;;;;;;16.13;68.76;101410.28;6259330;22;20015;-81
2022/11/27 17:36:41;;;;;;;8.52;3.38;;;;;;;16.12;68.81;101412.03;6284779;22;20006;-82
2022/11/27 17:39:08;;;;;;;7.65;3.25;;;;;;;16.12;68.71;101404.22;6262425;22;20010;-82
2022/11/27 17:41:34;;;;;;;5.75;2.97;;;;;;;16.12;68.80;101404.22;6261576;22;20012;-82
2022/11/27 17:44:05;;;;;;;6.10;3.10;;;;;;;16.12;68.86;101393.84;6286838;22;20090;-82
2022/11/27 17:46:38;;;;;;;7.10;3.20;;;;;;;16.11;68.58;101384.31;6298627;22;19987;-82
2022/11/27 17:49:27;;;;;;;;;;;;;;;16.10;68.78;101387.78;6303333;22;20015;-83
2022/11/27 18:07:17;;;;;;;5.35;3.13;;;;;;;16.11;68.79;101375.66;6312553;22;20019;-82
2022/11/27 18:10:21;;;;;;;5.18;2.90;;;;;;;16.11;68.95;101366.13;6252376;22;20075;-81
2022/11/27 18:12:46;;;;;;;5.03;3.15;;;;;;;16.11;68.80;101358.34;6290696;22;20323;-80
2022/11/27 18:15:12;;;;;;;8.43;3.00;;;;;;;16.11;68.75;101360.94;6262231;22;20011;-80
2022/11/27 18:17:38;;;;;;;6.35;3.38;;;;;;;16.11;68.88;101355.75;6290800;22;20063;-80
2022/11/27 18:20:04;;;;;;;5.35;3.17;;;;;;;16.11;68.73;101357.47;6288764;22;20046;-82
2022/11/27 18:22:32;;;;;;;4.70;3.20;;;;;;;16.10;68.38;101345.38;6293826;22;20003;-83
2022/11/27 18:25:06;;;;;;;6.55;3.08;;;;;;;16.11;68.74;101345.34;6269802;22;20089;-82
2022/11/27 18:27:33;;;;;;;5.85;3.25;;;;;;;16.12;68.75;101341.06;6306208;22;20010;-83
2022/11/27 18:29:58;;;;;;;6.15;3.30;;;;;;;16.12;68.65;101335.88;6308154;22;19995;-82
2022/11/27 18:32:31;;;;;;;5.20;3.10;;;;;;;16.12;68.65;101331.53;6282664;22;20008;-82
2022/11/27 18:35:16;;;;;;;7.25;3.10;;;;;;;16.16;68.98;101328.09;6331722;22;20003;-82
2022/11/27 18:37:41;;;;;;;7.07;2.80;;;;;;;16.17;68.78;101326.34;6327601;22;20003;-81
2022/11/27 18:40:16;;;;;;;6.50;3.72;;;;;;;16.18;69.04;101318.59;6276578;22;20014;-81
2022/11/27 18:46:38;;;;;;;5.30;2.67;;;;;;;16.22;69.19;101311.66;6304156;22;20006;-84
2022/11/27 18:49:42;;;;;;;8.15;3.25;;;;;;;16.22;69.15;101307.34;6203242;22;19994;-84
2022/11/27 18:52:13;;;;;;;4.60;3.03;;;;;;;16.24;69.48;101303.03;6276879;22;20000;-82
2022/11/27 18:55:01;;;;;;;5.80;2.97;;;;;;;16.22;69.56;101296.97;6275502;22;20003;-82
2022/11/27 19:01:24;;;;;;;7.15;2.88;;;;;;;16.20;69.64;101288.31;6271788;23;20062;-83
2022/11/27 19:04:30;;;;;;;4.68;2.92;;;;;;;16.22;69.57;101283.09;6271048;23;19996;-83
2022/11/27 19:10:34;;;;;;;6.20;3.05;;;;;;;16.21;69.42;101283.97;6179509;23;20008;-80
2022/11/27 19:12:59;;;;;;;4.55;3.25;;;;;;;16.21;69.46;101284.81;6170968;23;20013;-82
2022/11/27 19:15:25;;;;;;;5.93;2.95;;;;;;;16.20;69.41;101277.03;6199946;22;20450;-81
2022/11/27 19:27:59;;;;;;;7.30;3.38;;;;;;;16.19;69.63;101272.69;6302572;22;20518;-83
2022/11/27 19:40:37;;;;;;;5.72;2.90;;;;;;;16.18;69.64;101255.41;6303235;22;20018;-83
2022/11/27 19:59:59;;;;;;;4.15;2.97;;;;;;;16.16;69.85;101225.97;6335605;22;20029;-85
2022/11/27 20:03:08;;;;;;;6.18;3.38;;;;;;;16.17;69.91;101225.09;6258692;23;20046;-85
2022/11/27 20:09:02;;;;;;;6.80;3.30;;;;;;;16.16;69.70;101216.44;6270663;23;20015;-84
2022/11/27 20:11:47;;;;;;;6.32;3.22;;;;;;;16.15;70.06;101212.09;6270181;23;20045;-85
2022/11/27 20:14:50;;;;;;;3.75;2.90;;;;;;;16.17;69.89;101206.91;6245448;23;20063;-84
2022/11/27 20:17:24;;;;;;;4.32;3.08;;;;;;;16.16;69.81;101200.00;6244935;23;20000;-84
2022/11/27 20:30:13;;;;;;;4.75;3.28;;;;;;;16.14;69.71;101174.03;6270349;23;20023;-83
2022/11/27 20:36:36;;;;;;;5.20;3.33;;;;;;;16.15;69.98;101173.16;6297197;22;20381;-82
2022/11/27 20:42:31;;;;;;;4.38;3.08;;;;;;;16.13;69.39;101156.69;6333864;22;20070;-85
2022/11/27 20:45:19;;;;;;;3.88;2.60;;;;;;;16.15;69.49;101148.91;6238337;23;20542;-85
2022/11/27 20:51:20;;;;;;;5.60;3.10;;;;;;;16.14;69.29;101145.47;6239856;23;20024;-86
2022/11/27 20:54:36;;;;;;;4.30;2.90;;;;;;;16.14;69.48;101137.69;6224784;22;20029;-85
2022/11/27 21:03:46;;;;;;;6.55;3.10;;;;;;;16.14;69.18;101135.09;6204749;23;20063;-80
2022/11/27 21:07:00;;;;;;;5.30;3.10;;;;;;;16.13;69.46;101141.13;6204295;23;19989;-84
2022/11/27 21:17:08;;;;;;;3.90;2.85;;;;;;;16.15;69.08;101125.56;6123023;23;20030;-84
2022/11/27 23:00:38;;;;;;;5.93;3.85;;;;;;;15.98;68.73;101016.50;6274247;22;20063;31
